sensor_id;sensor_type;location;lat;lon;timestamp;temperature;humidity
14192;DHT22;7177;48.572;7.838;2023-08-21T00:02:16;24.00;99.90
14192;DHT22;7177;48.572;7.838;2023-08-21T00:04:42;23.90;99.90
14192;DHT22;7177;48.572;7.838;2023-08-21T00:07:07;23.80;99.90
14192;DHT22;7177;48.572;7.838;2023-08-21T00:09:34;23.80;99.90
14192;DHT22;7177;48.572;7.838;2023-08-21T00:12:00;23.80;99.90
14192;DHT22;7177;48.572;7.838;2023-08-21T00:14:25;23.80;99.90
14192;DHT22;7177;48.572;7.838;2023-08-21T00:16:51;23.80;99.90
14192;DHT22;7177;48.572;7.838;2023-08-21T00:19:16;23.80;99.90
14192;DHT22;7177;48.572;7.838;2023-08-21T00:21:42;23.70;99.90
14192;DHT22;7177;48.572;7.838;2023-08-21T00:24:07;23.70;99.90
14192;DHT22;7177;48.572;7.838;2023-08-21T00:26:33;23.60;99.90
14192;DHT22;7177;48.572;7.838;2023-08-21T00:28:58;23.60;99.90
14192;DHT22;7177;48.572;7.838;2023-08-21T00:31:24;23.70;99.90
14192;DHT22;7177;48.572;7.838;2023-08-21T00:33:49;23.60;99.90
14192;DHT22;7177;48.572;7.838;2023-08-21T00:36:16;23.70;99.90
14192;DHT22;7177;48.572;7.838;2023-08-21T00:38:41;23.80;99.90
14192;DHT22;7177;48.572;7.838;2023-08-21T00:41:07;23.80;99.90
14192;DHT22;7177;48.572;7.838;2023-08-21T00:43:32;23.90;99.90
14192;DHT22;7177;48.572;7.838;2023-08-21T00:45:58;23.90;99.90
14192;DHT22;7177;48.572;7.838;2023-08-21T00:48:24;23.80;99.90
14192;DHT22;7177;48.572;7.838;2023-08-21T00:50:50;23.70;99.90
14192;DHT22;7177;48.572;7.838;2023-08-21T00:53:16;23.60;99.90
14192;DHT22;7177;48.572;7.838;2023-08-21T00:55:41;23.50;99.90
14192;DHT22;7177;48.572;7.838;2023-08-21T00:58:10;23.60;99.90
14192;DHT22;7177;48.572;7.838;2023-08-21T01:00:37;23.60;99.90
14192;DHT22;7177;48.572;7.838;2023-08-21T01:03:03;23.70;99.90
14192;DHT22;7177;48.572;7.838;2023-08-21T01:05:28;23.70;99.90
14192;DHT22;7177;48.572;7.838;2023-08-21T01:08:03;23.70;99.90
14192;DHT22;7177;48.572;7.838;2023-08-21T01:10:51;23.60;99.90
14192;DHT22;7177;48.572;7.838;2023-08-21T01:13:47;23.60;99.90
14192;DHT22;7177;48.572;7.838;2023-08-21T01:16:14;23.40;99.90
14192;DHT22;7177;48.572;7.838;2023-08-21T01:18:42;23.20;99.90
14192;DHT22;7177;48.572;7.838;2023-08-21T01:21:08;23.20;99.90
14192;DHT22;7177;48.572;7.838;2023-08-21T01:23:35;23.20;99.90
14192;DHT22;7177;48.572;7.838;2023-08-21T01:26:01;23.20;99.90
14192;DHT22;7177;48.572;7.838;2023-08-21T01:28:27;23.20;99.90
14192;DHT22;7177;48.572;7.838;2023-08-21T01:33:37;23.10;99.90
14192;DHT22;7177;48.572;7.838;2023-08-21T01:36:05;23.10;99.90
14192;DHT22;7177;48.572;7.838;2023-08-21T01:38:33;23.10;99.90
14192;DHT22;7177;48.572;7.838;2023-08-21T01:40:58;23.10;99.90
14192;DHT22;7177;48.572;7.838;2023-08-21T01:43:24;23.10;99.90
14192;DHT22;7177;48.572;7.838;2023-08-21T01:45:49;23.00;99.90
14192;DHT22;7177;48.572;7.838;2023-08-21T01:48:15;22.90;99.90
14192;DHT22;7177;48.572;7.838;2023-08-21T01:50:40;22.70;99.90
14192;DHT22;7177;48.572;7.838;2023-08-21T01:53:06;22.60;99.90
14192;DHT22;7177;48.572;7.838;2023-08-21T01:55:32;22.40;99.90
14192;DHT22;7177;48.572;7.838;2023-08-21T01:57:57;22.40;99.90
14192;DHT22;7177;48.572;7.838;2023-08-21T02:00:23;22.40;99.90
14192;DHT22;7177;48.572;7.838;2023-08-21T02:02:48;22.40;99.90
14192;DHT22;7177;48.572;7.838;2023-08-21T02:05:14;22.30;99.90
14192;DHT22;7177;48.572;7.838;2023-08-21T02:07:40;22.30;99.90
14192;DHT22;7177;48.572;7.838;2023-08-21T02:10:06;22.40;99.90
14192;DHT22;7177;48.572;7.838;2023-08-21T02:12:31;22.50;99.90
14192;DHT22;7177;48.572;7.838;2023-08-21T02:14:57;22.60;99.90
14192;DHT22;7177;48.572;7.838;2023-08-21T02:19:49;22.60;99.90
14192;DHT22;7177;48.572;7.838;2023-08-21T02:22:15;22.60;99.90
14192;DHT22;7177;48.572;7.838;2023-08-21T02:24:41;22.60;99.90
14192;DHT22;7177;48.572;7.838;2023-08-21T02:27:06;22.60;99.90
14192;DHT22;7177;48.572;7.838;2023-08-21T02:29:32;22.60;99.90
14192;DHT22;7177;48.572;7.838;2023-08-21T02:31:57;22.60;99.90
14192;DHT22;7177;48.572;7.838;2023-08-21T02:34:24;22.60;99.90
14192;DHT22;7177;48.572;7.838;2023-08-21T02:36:49;22.60;99.90
14192;DHT22;7177;48.572;7.838;2023-08-21T02:39:15;22.60;99.90
14192;DHT22;7177;48.572;7.838;2023-08-21T02:41:40;22.60;99.90
14192;DHT22;7177;48.572;7.838;2023-08-21T02:44:06;22.60;99.90
14192;DHT22;7177;48.572;7.838;2023-08-21T02:46:31;22.40;99.90
14192;DHT22;7177;48.572;7.838;2023-08-21T02:48:59;22.30;99.90
14192;DHT22;7177;48.572;7.838;2023-08-21T02:51:25;22.20;99.90
14192;DHT22;7177;48.572;7.838;2023-08-21T02:53:50;22.10;99.90
14192;DHT22;7177;48.572;7.838;2023-08-21T02:56:16;22.10;99.90
14192;DHT22;7177;48.572;7.838;2023-08-21T02:58:41;22.00;99.90
14192;DHT22;7177;48.572;7.838;2023-08-21T03:01:07;22.10;99.90
14192;DHT22;7177;48.572;7.838;2023-08-21T03:03:32;22.10;99.90
14192;DHT22;7177;48.572;7.838;2023-08-21T03:05:59;22.10;99.90
14192;DHT22;7177;48.572;7.838;2023-08-21T03:08:24;22.00;99.90
14192;DHT22;7177;48.572;7.838;2023-08-21T03:10:50;21.90;99.90
14192;DHT22;7177;48.572;7.838;2023-08-21T03:13:15;21.90;99.90
14192;DHT22;7177;48.572;7.838;2023-08-21T03:15:41;21.90;99.90
14192;DHT22;7177;48.572;7.838;2023-08-21T03:18:07;21.90;99.90
14192;DHT22;7177;48.572;7.838;2023-08-21T03:20:32;21.80;99.90
14192;DHT22;7177;48.572;7.838;2023-08-21T03:22:58;21.80;99.90
14192;DHT22;7177;48.572;7.838;2023-08-21T03:25:23;21.80;99.90
14192;DHT22;7177;48.572;7.838;2023-08-21T03:27:49;21.90;99.90
14192;DHT22;7177;48.572;7.838;2023-08-21T03:30:15;21.90;99.90
14192;DHT22;7177;48.572;7.838;2023-08-21T03:32:40;21.80;99.90
14192;DHT22;7177;48.572;7.838;2023-08-21T03:35:06;21.80;99.90
14192;DHT22;7177;48.572;7.838;2023-08-21T03:37:33;21.80;99.90
14192;DHT22;7177;48.572;7.838;2023-08-21T03:39:58;21.70;99.90
14192;DHT22;7177;48.572;7.838;2023-08-21T03:42:24;21.70;99.90
14192;DHT22;7177;48.572;7.838;2023-08-21T03:44:49;21.60;99.90
14192;DHT22;7177;48.572;7.838;2023-08-21T03:47:16;21.50;99.90
14192;DHT22;7177;48.572;7.838;2023-08-21T03:49:42;21.40;99.90
14192;DHT22;7177;48.572;7.838;2023-08-21T03:52:07;21.30;99.90
14192;DHT22;7177;48.572;7.838;2023-08-21T03:54:33;21.30;99.90
14192;DHT22;7177;48.572;7.838;2023-08-21T03:56:58;21.20;99.90
14192;DHT22;7177;48.572;7.838;2023-08-21T03:59:24;21.20;99.90
14192;DHT22;7177;48.572;7.838;2023-08-21T04:01:53;21.20;99.90
14192;DHT22;7177;48.572;7.838;2023-08-21T04:04:18;21.20;99.90
14192;DHT22;7177;48.572;7.838;2023-08-21T04:06:44;21.10;99.90
14192;DHT22;7177;48.572;7.838;2023-08-21T04:09:09;21.20;99.90
14192;DHT22;7177;48.572;7.838;2023-08-21T04:11:36;21.30;99.90
14192;DHT22;7177;48.572;7.838;2023-08-21T04:14:02;21.30;99.90
14192;DHT22;7177;48.572;7.838;2023-08-21T04:16:27;21.40;99.90
14192;DHT22;7177;48.572;7.838;2023-08-21T04:18:53;21.50;99.90
14192;DHT22;7177;48.572;7.838;2023-08-21T04:21:19;21.50;99.90
14192;DHT22;7177;48.572;7.838;2023-08-21T04:23:45;21.60;99.90
14192;DHT22;7177;48.572;7.838;2023-08-21T04:26:13;21.60;99.90
14192;DHT22;7177;48.572;7.838;2023-08-21T04:28:38;21.50;99.90
14192;DHT22;7177;48.572;7.838;2023-08-21T04:31:05;21.40;99.90
14192;DHT22;7177;48.572;7.838;2023-08-21T04:33:32;21.40;99.90
14192;DHT22;7177;48.572;7.838;2023-08-21T04:35:58;21.50;99.90
14192;DHT22;7177;48.572;7.838;2023-08-21T04:38:23;21.50;99.90
14192;DHT22;7177;48.572;7.838;2023-08-21T04:40:49;21.50;99.90
14192;DHT22;7177;48.572;7.838;2023-08-21T04:43:14;21.60;99.90
14192;DHT22;7177;48.572;7.838;2023-08-21T04:45:50;21.60;99.90
14192;DHT22;7177;48.572;7.838;2023-08-21T04:48:16;21.60;99.90
14192;DHT22;7177;48.572;7.838;2023-08-21T04:50:42;21.50;99.90
14192;DHT22;7177;48.572;7.838;2023-08-21T04:53:07;21.50;99.90
14192;DHT22;7177;48.572;7.838;2023-08-21T04:55:33;21.60;99.90
14192;DHT22;7177;48.572;7.838;2023-08-21T04:57:58;21.60;99.90
14192;DHT22;7177;48.572;7.838;2023-08-21T05:00:24;21.90;99.90
14192;DHT22;7177;48.572;7.838;2023-08-21T05:02:50;22.00;99.90
14192;DHT22;7177;48.572;7.838;2023-08-21T05:05:15;22.20;99.90
14192;DHT22;7177;48.572;7.838;2023-08-21T05:07:41;22.30;99.90
14192;DHT22;7177;48.572;7.838;2023-08-21T05:10:07;22.40;99.90
14192;DHT22;7177;48.572;7.838;2023-08-21T05:12:32;22.60;99.90
14192;DHT22;7177;48.572;7.838;2023-08-21T05:14:58;22.60;99.90
14192;DHT22;7177;48.572;7.838;2023-08-21T05:17:24;22.70;99.90
14192;DHT22;7177;48.572;7.838;2023-08-21T05:19:51;22.80;99.90
14192;DHT22;7177;48.572;7.838;2023-08-21T05:22:16;22.80;99.90
14192;DHT22;7177;48.572;7.838;2023-08-21T05:24:42;22.90;99.90
14192;DHT22;7177;48.572;7.838;2023-08-21T05:27:07;23.00;99.90
14192;DHT22;7177;48.572;7.838;2023-08-21T05:29:33;23.10;99.90
14192;DHT22;7177;48.572;7.838;2023-08-21T05:31:59;23.20;99.90
14192;DHT22;7177;48.572;7.838;2023-08-21T05:34:25;23.40;99.90
14192;DHT22;7177;48.572;7.838;2023-08-21T05:36:51;23.50;99.90
14192;DHT22;7177;48.572;7.838;2023-08-21T05:39:16;23.60;99.90
14192;DHT22;7177;48.572;7.838;2023-08-21T05:41:43;23.70;99.90
14192;DHT22;7177;48.572;7.838;2023-08-21T05:44:08;23.80;99.90
14192;DHT22;7177;48.572;7.838;2023-08-21T05:46:34;23.90;99.90
14192;DHT22;7177;48.572;7.838;2023-08-21T05:48:59;23.90;99.90
14192;DHT22;7177;48.572;7.838;2023-08-21T05:51:25;24.10;99.90
14192;DHT22;7177;48.572;7.838;2023-08-21T05:53:50;24.20;99.90
14192;DHT22;7177;48.572;7.838;2023-08-21T05:56:16;24.50;99.90
14192;DHT22;7177;48.572;7.838;2023-08-21T05:58:41;24.60;99.90
14192;DHT22;7177;48.572;7.838;2023-08-21T06:01:07;24.70;99.90
14192;DHT22;7177;48.572;7.838;2023-08-21T06:03:32;24.80;99.90
14192;DHT22;7177;48.572;7.838;2023-08-21T06:05:58;25.00;99.90
14192;DHT22;7177;48.572;7.838;2023-08-21T06:08:23;25.10;99.90
14192;DHT22;7177;48.572;7.838;2023-08-21T06:10:52;25.20;99.90
14192;DHT22;7177;48.572;7.838;2023-08-21T06:13:18;25.30;99.90
14192;DHT22;7177;48.572;7.838;2023-08-21T06:15:44;25.40;99.90
14192;DHT22;7177;48.572;7.838;2023-08-21T06:18:10;25.50;99.90
14192;DHT22;7177;48.572;7.838;2023-08-21T06:20:36;25.60;99.90
14192;DHT22;7177;48.572;7.838;2023-08-21T06:23:01;25.60;99.90
14192;DHT22;7177;48.572;7.838;2023-08-21T06:25:27;25.90;99.90
14192;DHT22;7177;48.572;7.838;2023-08-21T06:27:53;26.10;99.90
14192;DHT22;7177;48.572;7.838;2023-08-21T06:30:18;26.20;99.90
14192;DHT22;7177;48.572;7.838;2023-08-21T06:32:44;26.30;99.90
14192;DHT22;7177;48.572;7.838;2023-08-21T06:35:10;26.40;99.90
14192;DHT22;7177;48.572;7.838;2023-08-21T06:37:35;26.50;99.90
14192;DHT22;7177;48.572;7.838;2023-08-21T06:40:01;26.60;99.90
14192;DHT22;7177;48.572;7.838;2023-08-21T06:42:27;26.80;99.90
14192;DHT22;7177;48.572;7.838;2023-08-21T06:44:52;27.00;99.90
14192;DHT22;7177;48.572;7.838;2023-08-21T06:47:18;27.10;99.90
14192;DHT22;7177;48.572;7.838;2023-08-21T06:49:43;27.30;99.90
14192;DHT22;7177;48.572;7.838;2023-08-21T06:52:09;27.40;99.90
14192;DHT22;7177;48.572;7.838;2023-08-21T06:54:34;27.40;99.90
14192;DHT22;7177;48.572;7.838;2023-08-21T06:57:00;27.50;99.90
14192;DHT22;7177;48.572;7.838;2023-08-21T06:59:25;27.70;99.90
14192;DHT22;7177;48.572;7.838;2023-08-21T07:01:51;27.90;99.90
14192;DHT22;7177;48.572;7.838;2023-08-21T07:04:17;28.00;99.90
14192;DHT22;7177;48.572;7.838;2023-08-21T07:06:42;27.90;99.90
14192;DHT22;7177;48.572;7.838;2023-08-21T07:09:08;28.00;99.90
14192;DHT22;7177;48.572;7.838;2023-08-21T07:11:33;28.20;99.90
14192;DHT22;7177;48.572;7.838;2023-08-21T07:13:59;28.00;99.90
14192;DHT22;7177;48.572;7.838;2023-08-21T07:16:24;28.00;99.90
14192;DHT22;7177;48.572;7.838;2023-08-21T07:18:51;28.10;99.90
14192;DHT22;7177;48.572;7.838;2023-08-21T07:21:17;28.20;99.90
14192;DHT22;7177;48.572;7.838;2023-08-21T07:23:43;28.40;99.90
14192;DHT22;7177;48.572;7.838;2023-08-21T07:26:08;28.50;99.90
14192;DHT22;7177;48.572;7.838;2023-08-21T07:28:34;28.70;99.90
14192;DHT22;7177;48.572;7.838;2023-08-21T07:31:01;28.60;99.90
14192;DHT22;7177;48.572;7.838;2023-08-21T07:33:27;28.70;99.90
14192;DHT22;7177;48.572;7.838;2023-08-21T07:36:05;28.90;99.90
14192;DHT22;7177;48.572;7.838;2023-08-21T07:38:31;29.00;99.90
14192;DHT22;7177;48.572;7.838;2023-08-21T07:41:09;29.10;99.90
14192;DHT22;7177;48.572;7.838;2023-08-21T07:43:36;29.30;99.90
14192;DHT22;7177;48.572;7.838;2023-08-21T07:46:03;29.50;99.90
14192;DHT22;7177;48.572;7.838;2023-08-21T07:48:29;29.90;99.90
14192;DHT22;7177;48.572;7.838;2023-08-21T07:50:54;30.10;99.90
14192;DHT22;7177;48.572;7.838;2023-08-21T07:53:20;30.30;99.90
14192;DHT22;7177;48.572;7.838;2023-08-21T07:55:45;30.50;99.90
14192;DHT22;7177;48.572;7.838;2023-08-21T07:58:11;30.50;99.90
14192;DHT22;7177;48.572;7.838;2023-08-21T08:00:38;30.70;99.90
14192;DHT22;7177;48.572;7.838;2023-08-21T08:03:04;31.00;99.90
14192;DHT22;7177;48.572;7.838;2023-08-21T08:05:31;31.00;99.90
14192;DHT22;7177;48.572;7.838;2023-08-21T08:07:56;31.20;99.90
14192;DHT22;7177;48.572;7.838;2023-08-21T08:10:23;31.10;99.90
14192;DHT22;7177;48.572;7.838;2023-08-21T08:12:49;31.20;99.90
14192;DHT22;7177;48.572;7.838;2023-08-21T08:15:14;31.20;99.90
14192;DHT22;7177;48.572;7.838;2023-08-21T08:17:40;31.40;99.90
14192;DHT22;7177;48.572;7.838;2023-08-21T08:20:05;31.80;99.90
14192;DHT22;7177;48.572;7.838;2023-08-21T08:22:31;32.10;99.90
14192;DHT22;7177;48.572;7.838;2023-08-21T08:24:57;32.30;99.90
14192;DHT22;7177;48.572;7.838;2023-08-21T08:27:22;32.60;99.90
14192;DHT22;7177;48.572;7.838;2023-08-21T08:29:48;32.70;99.90
14192;DHT22;7177;48.572;7.838;2023-08-21T08:32:14;32.50;99.90
14192;DHT22;7177;48.572;7.838;2023-08-21T08:34:39;32.60;99.90
14192;DHT22;7177;48.572;7.838;2023-08-21T08:37:05;32.50;99.90
14192;DHT22;7177;48.572;7.838;2023-08-21T08:39:30;32.80;99.90
14192;DHT22;7177;48.572;7.838;2023-08-21T08:42:03;33.10;99.90
14192;DHT22;7177;48.572;7.838;2023-08-21T08:44:29;33.30;99.90
14192;DHT22;7177;48.572;7.838;2023-08-21T08:46:56;33.40;99.90
14192;DHT22;7177;48.572;7.838;2023-08-21T08:49:22;33.60;99.90
14192;DHT22;7177;48.572;7.838;2023-08-21T08:51:49;33.50;99.90
14192;DHT22;7177;48.572;7.838;2023-08-21T08:54:16;33.60;99.90
14192;DHT22;7177;48.572;7.838;2023-08-21T08:56:43;33.70;99.90
14192;DHT22;7177;48.572;7.838;2023-08-21T08:59:08;33.90;99.90
14192;DHT22;7177;48.572;7.838;2023-08-21T09:01:34;33.80;99.90
14192;DHT22;7177;48.572;7.838;2023-08-21T09:04:00;33.70;99.90
14192;DHT22;7177;48.572;7.838;2023-08-21T09:06:26;33.90;99.90
14192;DHT22;7177;48.572;7.838;2023-08-21T09:08:56;34.00;99.90
14192;DHT22;7177;48.572;7.838;2023-08-21T09:11:22;34.10;99.90
14192;DHT22;7177;48.572;7.838;2023-08-21T09:13:53;34.10;99.90
14192;DHT22;7177;48.572;7.838;2023-08-21T09:16:20;34.10;99.90
14192;DHT22;7177;48.572;7.838;2023-08-21T09:18:50;34.20;99.90
14192;DHT22;7177;48.572;7.838;2023-08-21T09:21:17;34.50;99.90
14192;DHT22;7177;48.572;7.838;2023-08-21T09:23:43;34.70;99.90
14192;DHT22;7177;48.572;7.838;2023-08-21T09:26:09;34.80;99.90
14192;DHT22;7177;48.572;7.838;2023-08-21T09:28:34;34.60;99.90
14192;DHT22;7177;48.572;7.838;2023-08-21T09:31:00;34.60;99.90
14192;DHT22;7177;48.572;7.838;2023-08-21T09:33:27;34.80;99.90
14192;DHT22;7177;48.572;7.838;2023-08-21T09:35:54;34.80;99.90
14192;DHT22;7177;48.572;7.838;2023-08-21T09:38:21;35.00;99.90
14192;DHT22;7177;48.572;7.838;2023-08-21T09:40:54;35.20;99.90
14192;DHT22;7177;48.572;7.838;2023-08-21T09:43:23;35.20;99.90
14192;DHT22;7177;48.572;7.838;2023-08-21T09:45:54;35.50;99.90
14192;DHT22;7177;48.572;7.838;2023-08-21T09:48:25;35.90;99.90
14192;DHT22;7177;48.572;7.838;2023-08-21T09:50:53;36.10;99.90
14192;DHT22;7177;48.572;7.838;2023-08-21T09:53:22;36.30;99.90
14192;DHT22;7177;48.572;7.838;2023-08-21T09:55:52;36.20;99.90
14192;DHT22;7177;48.572;7.838;2023-08-21T09:58:19;36.40;99.90
14192;DHT22;7177;48.572;7.838;2023-08-21T10:00:45;36.50;99.90
14192;DHT22;7177;48.572;7.838;2023-08-21T10:03:14;36.70;99.90
14192;DHT22;7177;48.572;7.838;2023-08-21T10:05:40;36.70;99.90
14192;DHT22;7177;48.572;7.838;2023-08-21T10:08:07;36.70;99.90
14192;DHT22;7177;48.572;7.838;2023-08-21T10:10:34;36.80;99.90
14192;DHT22;7177;48.572;7.838;2023-08-21T10:13:00;37.00;99.90
14192;DHT22;7177;48.572;7.838;2023-08-21T10:15:28;37.50;99.90
14192;DHT22;7177;48.572;7.838;2023-08-21T10:17:54;37.60;99.90
14192;DHT22;7177;48.572;7.838;2023-08-21T10:20:25;37.60;99.60
14192;DHT22;7177;48.572;7.838;2023-08-21T10:22:55;37.60;99.70
14192;DHT22;7177;48.572;7.838;2023-08-21T10:25:26;37.70;99.20
14192;DHT22;7177;48.572;7.838;2023-08-21T10:28:00;37.80;98.00
14192;DHT22;7177;48.572;7.838;2023-08-21T10:30:28;38.20;98.20
14192;DHT22;7177;48.572;7.838;2023-08-21T10:32:55;38.20;97.50
14192;DHT22;7177;48.572;7.838;2023-08-21T10:35:29;38.10;96.60
14192;DHT22;7177;48.572;7.838;2023-08-21T10:38:13;38.10;97.60
14192;DHT22;7177;48.572;7.838;2023-08-21T10:41:05;38.20;97.30
14192;DHT22;7177;48.572;7.838;2023-08-21T10:46:07;38.40;96.50
14192;DHT22;7177;48.572;7.838;2023-08-21T10:48:33;38.60;95.00
14192;DHT22;7177;48.572;7.838;2023-08-21T10:51:03;38.30;95.30
14192;DHT22;7177;48.572;7.838;2023-08-21T10:53:29;38.40;96.00
14192;DHT22;7177;48.572;7.838;2023-08-21T10:55:56;38.80;95.90
14192;DHT22;7177;48.572;7.838;2023-08-21T10:58:21;39.10;94.50
14192;DHT22;7177;48.572;7.838;2023-08-21T11:00:47;39.00;94.40
14192;DHT22;7177;48.572;7.838;2023-08-21T11:03:20;39.20;94.10
14192;DHT22;7177;48.572;7.838;2023-08-21T11:06:00;39.30;93.90
14192;DHT22;7177;48.572;7.838;2023-08-21T11:08:26;38.80;93.70
14192;DHT22;7177;48.572;7.838;2023-08-21T11:10:51;39.00;93.20
14192;DHT22;7177;48.572;7.838;2023-08-21T11:13:18;38.70;93.70
14192;DHT22;7177;48.572;7.838;2023-08-21T11:15:45;38.50;92.60
14192;DHT22;7177;48.572;7.838;2023-08-21T11:18:11;38.60;92.40
14192;DHT22;7177;48.572;7.838;2023-08-21T11:20:36;38.70;92.70
14192;DHT22;7177;48.572;7.838;2023-08-21T11:23:04;39.00;92.40
14192;DHT22;7177;48.572;7.838;2023-08-21T11:25:33;38.90;91.10
14192;DHT22;7177;48.572;7.838;2023-08-21T11:27:59;39.10;90.90
14192;DHT22;7177;48.572;7.838;2023-08-21T11:30:27;39.40;90.00
14192;DHT22;7177;48.572;7.838;2023-08-21T11:33:10;39.70;90.80
14192;DHT22;7177;48.572;7.838;2023-08-21T11:35:36;39.20;90.30
14192;DHT22;7177;48.572;7.838;2023-08-21T11:38:03;39.40;90.10
14192;DHT22;7177;48.572;7.838;2023-08-21T11:40:29;39.80;85.70
14192;DHT22;7177;48.572;7.838;2023-08-21T11:43:02;39.80;82.60
14192;DHT22;7177;48.572;7.838;2023-08-21T11:45:29;39.80;84.10
14192;DHT22;7177;48.572;7.838;2023-08-21T11:47:58;39.70;84.40
14192;DHT22;7177;48.572;7.838;2023-08-21T11:50:23;39.90;83.80
14192;DHT22;7177;48.572;7.838;2023-08-21T11:52:53;41.40;85.20
14192;DHT22;7177;48.572;7.838;2023-08-21T11:55:20;39.40;84.80
14192;DHT22;7177;48.572;7.838;2023-08-21T11:57:46;39.60;81.80
14192;DHT22;7177;48.572;7.838;2023-08-21T12:00:12;39.70;81.00
14192;DHT22;7177;48.572;7.838;2023-08-21T12:02:39;39.80;79.90
14192;DHT22;7177;48.572;7.838;2023-08-21T12:05:05;40.00;80.30
14192;DHT22;7177;48.572;7.838;2023-08-21T12:07:33;39.80;79.10
14192;DHT22;7177;48.572;7.838;2023-08-21T12:10:00;39.70;79.60
14192;DHT22;7177;48.572;7.838;2023-08-21T12:12:26;39.80;79.60
14192;DHT22;7177;48.572;7.838;2023-08-21T12:14:51;40.00;78.40
14192;DHT22;7177;48.572;7.838;2023-08-21T12:17:17;39.80;79.00
14192;DHT22;7177;48.572;7.838;2023-08-21T12:19:42;39.90;81.40
14192;DHT22;7177;48.572;7.838;2023-08-21T12:22:09;40.00;79.70
14192;DHT22;7177;48.572;7.838;2023-08-21T12:24:35;39.90;79.50
14192;DHT22;7177;48.572;7.838;2023-08-21T12:27:00;40.00;79.40
14192;DHT22;7177;48.572;7.838;2023-08-21T12:29:26;40.00;79.90
14192;DHT22;7177;48.572;7.838;2023-08-21T12:31:52;40.00;81.20
14192;DHT22;7177;48.572;7.838;2023-08-21T12:34:17;40.20;79.40
14192;DHT22;7177;48.572;7.838;2023-08-21T12:36:43;40.40;78.10
14192;DHT22;7177;48.572;7.838;2023-08-21T12:39:09;40.40;79.40
14192;DHT22;7177;48.572;7.838;2023-08-21T12:41:34;40.20;81.70
14192;DHT22;7177;48.572;7.838;2023-08-21T12:44:00;40.10;80.60
14192;DHT22;7177;48.572;7.838;2023-08-21T12:46:26;40.10;80.50
14192;DHT22;7177;48.572;7.838;2023-08-21T12:48:53;40.20;80.90
14192;DHT22;7177;48.572;7.838;2023-08-21T12:51:19;40.40;81.10
14192;DHT22;7177;48.572;7.838;2023-08-21T12:53:44;40.40;78.10
14192;DHT22;7177;48.572;7.838;2023-08-21T12:56:10;40.20;78.80
14192;DHT22;7177;48.572;7.838;2023-08-21T12:58:35;39.90;79.50
14192;DHT22;7177;48.572;7.838;2023-08-21T13:01:01;39.80;78.00
14192;DHT22;7177;48.572;7.838;2023-08-21T13:03:28;39.90;76.70
14192;DHT22;7177;48.572;7.838;2023-08-21T13:05:54;39.90;76.30
14192;DHT22;7177;48.572;7.838;2023-08-21T13:08:20;39.90;78.00
14192;DHT22;7177;48.572;7.838;2023-08-21T13:10:46;40.00;78.60
14192;DHT22;7177;48.572;7.838;2023-08-21T13:13:12;40.20;77.50
14192;DHT22;7177;48.572;7.838;2023-08-21T13:15:38;40.50;77.00
14192;DHT22;7177;48.572;7.838;2023-08-21T13:18:04;40.90;75.70
14192;DHT22;7177;48.572;7.838;2023-08-21T13:20:29;40.90;76.00
14192;DHT22;7177;48.572;7.838;2023-08-21T13:22:55;40.90;72.40
14192;DHT22;7177;48.572;7.838;2023-08-21T13:25:24;40.80;74.20
14192;DHT22;7177;48.572;7.838;2023-08-21T13:27:52;40.80;76.30
14192;DHT22;7177;48.572;7.838;2023-08-21T13:30:18;40.70;76.20
14192;DHT22;7177;48.572;7.838;2023-08-21T13:32:45;40.70;77.10
14192;DHT22;7177;48.572;7.838;2023-08-21T13:35:11;40.70;75.40
14192;DHT22;7177;48.572;7.838;2023-08-21T13:37:37;40.80;73.30
14192;DHT22;7177;48.572;7.838;2023-08-21T13:40:03;41.10;71.80
14192;DHT22;7177;48.572;7.838;2023-08-21T13:42:48;41.30;74.20
14192;DHT22;7177;48.572;7.838;2023-08-21T13:45:15;41.30;71.80
14192;DHT22;7177;48.572;7.838;2023-08-21T13:47:42;41.10;72.40
14192;DHT22;7177;48.572;7.838;2023-08-21T13:50:09;40.60;72.30
14192;DHT22;7177;48.572;7.838;2023-08-21T13:52:35;40.40;72.50
14192;DHT22;7177;48.572;7.838;2023-08-21T13:55:01;40.50;70.70
14192;DHT22;7177;48.572;7.838;2023-08-21T13:57:28;40.50;70.30
14192;DHT22;7177;48.572;7.838;2023-08-21T13:59:53;40.50;70.90
14192;DHT22;7177;48.572;7.838;2023-08-21T14:02:19;40.60;72.60
14192;DHT22;7177;48.572;7.838;2023-08-21T14:04:45;40.60;74.60
14192;DHT22;7177;48.572;7.838;2023-08-21T14:07:11;40.30;74.00
14192;DHT22;7177;48.572;7.838;2023-08-21T14:09:38;40.20;73.50
14192;DHT22;7177;48.572;7.838;2023-08-21T14:12:04;39.90;74.90
14192;DHT22;7177;48.572;7.838;2023-08-21T14:14:29;40.10;74.50
14192;DHT22;7177;48.572;7.838;2023-08-21T14:16:55;40.20;72.50
14192;DHT22;7177;48.572;7.838;2023-08-21T14:19:20;40.20;71.80
14192;DHT22;7177;48.572;7.838;2023-08-21T14:21:46;40.40;71.50
14192;DHT22;7177;48.572;7.838;2023-08-21T14:24:11;40.50;74.00
14192;DHT22;7177;48.572;7.838;2023-08-21T14:26:37;40.20;73.40
14192;DHT22;7177;48.572;7.838;2023-08-21T14:29:05;40.30;70.70
14192;DHT22;7177;48.572;7.838;2023-08-21T14:31:30;40.40;70.90
14192;DHT22;7177;48.572;7.838;2023-08-21T14:33:56;40.30;68.80
14192;DHT22;7177;48.572;7.838;2023-08-21T14:36:21;40.20;67.10
14192;DHT22;7177;48.572;7.838;2023-08-21T14:38:47;40.30;69.80
14192;DHT22;7177;48.572;7.838;2023-08-21T14:41:12;40.40;70.00
14192;DHT22;7177;48.572;7.838;2023-08-21T14:43:38;40.30;72.20
14192;DHT22;7177;48.572;7.838;2023-08-21T14:46:03;40.10;72.70
14192;DHT22;7177;48.572;7.838;2023-08-21T14:48:29;39.80;73.70
14192;DHT22;7177;48.572;7.838;2023-08-21T14:50:55;39.80;72.20
14192;DHT22;7177;48.572;7.838;2023-08-21T14:53:20;39.90;70.30
14192;DHT22;7177;48.572;7.838;2023-08-21T14:55:46;39.90;72.10
14192;DHT22;7177;48.572;7.838;2023-08-21T14:58:11;39.70;71.00
14192;DHT22;7177;48.572;7.838;2023-08-21T15:00:37;39.80;70.80
14192;DHT22;7177;48.572;7.838;2023-08-21T15:03:03;39.90;72.40
14192;DHT22;7177;48.572;7.838;2023-08-21T15:05:28;40.00;71.40
14192;DHT22;7177;48.572;7.838;2023-08-21T15:07:55;40.20;70.40
14192;DHT22;7177;48.572;7.838;2023-08-21T15:10:21;40.20;69.20
14192;DHT22;7177;48.572;7.838;2023-08-21T15:12:46;40.00;70.40
14192;DHT22;7177;48.572;7.838;2023-08-21T15:15:12;40.00;70.30
14192;DHT22;7177;48.572;7.838;2023-08-21T15:17:38;39.70;70.00
14192;DHT22;7177;48.572;7.838;2023-08-21T15:20:04;39.30;71.10
14192;DHT22;7177;48.572;7.838;2023-08-21T15:22:33;39.30;72.40
14192;DHT22;7177;48.572;7.838;2023-08-21T15:24:58;39.30;72.80
14192;DHT22;7177;48.572;7.838;2023-08-21T15:27:24;39.30;71.40
14192;DHT22;7177;48.572;7.838;2023-08-21T15:29:50;39.40;69.70
14192;DHT22;7177;48.572;7.838;2023-08-21T15:32:15;39.40;70.20
14192;DHT22;7177;48.572;7.838;2023-08-21T15:34:41;39.30;68.40
14192;DHT22;7177;48.572;7.838;2023-08-21T15:37:07;38.90;70.70
14192;DHT22;7177;48.572;7.838;2023-08-21T15:39:32;38.70;72.40
14192;DHT22;7177;48.572;7.838;2023-08-21T15:41:58;38.90;71.50
14192;DHT22;7177;48.572;7.838;2023-08-21T15:44:23;39.00;72.20
14192;DHT22;7177;48.572;7.838;2023-08-21T15:46:49;38.90;72.80
14192;DHT22;7177;48.572;7.838;2023-08-21T15:49:14;38.80;73.90